createdAt,value
2017-04-10T00:00:09.337Z,101338.65
2017-04-10T00:01:07.823Z,101343.02
2017-04-10T00:02:06.339Z,101341.92
2017-04-10T00:03:04.902Z,101338.42
2017-04-10T00:04:03.420Z,101343.56
2017-04-10T00:05:01.963Z,101334.09
2017-04-10T00:06:00.714Z,101336.50
2017-04-10T00:06:59.243Z,101330.67
2017-04-10T00:07:57.792Z,101329.57
2017-04-10T00:08:56.416Z,101327.64
2017-04-10T00:09:54.946Z,101325.98
2017-04-10T00:10:53.434Z,101327.70
2017-04-10T00:11:51.962Z,101328.92
2017-04-10T00:12:50.467Z,101328.31
2017-04-10T00:13:48.951Z,101319.91
2017-04-10T00:14:47.443Z,101330.18
2017-04-10T00:15:46.047Z,101324.64
2017-04-10T00:16:44.570Z,101323.05
2017-04-10T00:17:43.159Z,101319.22
2017-04-10T00:18:41.948Z,101324.48
2017-04-10T00:19:40.559Z,101321.80
2017-04-10T00:20:39.143Z,101309.80
2017-04-10T00:21:37.977Z,101311.99
2017-04-10T00:22:36.580Z,101310.25
2017-04-10T00:23:35.079Z,101304.84
2017-04-10T00:24:33.583Z,101304.79
2017-04-10T00:25:32.062Z,101312.05
2017-04-10T00:26:30.602Z,101307.46
2017-04-10T00:27:29.108Z,101309.55
2017-04-10T00:28:27.587Z,101305.00
2017-04-10T00:29:26.111Z,101305.42
2017-04-10T00:30:24.600Z,101307.45
2017-04-10T00:31:23.181Z,101306.62
2017-04-10T00:32:21.755Z,101297.75
2017-04-10T00:33:20.255Z,101298.96
2017-04-10T00:34:18.763Z,101302.88
2017-04-10T00:35:17.245Z,101307.60
2017-04-10T00:36:15.748Z,101307.86
2017-04-10T00:37:14.310Z,101305.82
2017-04-10T00:38:12.940Z,101302.73
2017-04-10T00:39:11.455Z,101307.70
2017-04-10T00:40:09.952Z,101303.53
2017-04-10T00:41:08.463Z,101303.09
2017-04-10T00:42:07.051Z,101302.33
2017-04-10T00:43:05.574Z,101300.31
2017-04-10T00:44:04.079Z,101296.97
2017-04-10T00:45:02.605Z,101295.54
2017-04-10T00:46:01.140Z,101298.41
2017-04-10T00:46:59.643Z,101294.50
2017-04-10T00:47:58.161Z,101296.94
2017-04-10T00:48:56.652Z,101291.28
2017-04-10T00:49:55.176Z,101294.11
2017-04-10T00:50:53.727Z,101294.87
2017-04-10T00:51:52.275Z,101288.41
2017-04-10T00:52:50.790Z,101291.66
2017-04-10T00:53:49.301Z,101286.62
2017-04-10T00:54:47.831Z,101291.05
2017-04-10T00:55:46.331Z,101288.23
2017-04-10T00:56:44.851Z,101285.45
2017-04-10T00:57:43.367Z,101292.58
2017-04-10T00:58:41.866Z,101286.67
2017-04-10T00:59:40.374Z,101289.84
2017-04-10T01:00:38.980Z,101283.11
2017-04-10T01:01:37.552Z,101286.75
2017-04-10T01:02:36.107Z,101286.47
2017-04-10T01:03:34.630Z,101289.45
2017-04-10T01:04:33.165Z,101285.95
2017-04-10T01:05:31.673Z,101286.31
2017-04-10T01:06:30.191Z,101290.05
2017-04-10T01:07:28.672Z,101290.16
2017-04-10T01:08:27.217Z,101291.55
2017-04-10T01:09:26.510Z,101293.84
2017-04-10T01:10:25.107Z,101287.25
2017-04-10T01:11:23.792Z,101288.84
2017-04-10T01:12:22.269Z,101286.91
2017-04-10T01:13:20.805Z,101289.73
2017-04-10T01:14:19.380Z,101281.70
2017-04-10T01:15:17.930Z,101287.46
2017-04-10T01:16:16.422Z,101296.04
2017-04-10T01:17:14.911Z,101287.14
2017-04-10T01:18:13.487Z,101286.55
2017-04-10T01:19:12.001Z,101284.53
2017-04-10T01:20:10.531Z,101283.67
2017-04-10T01:21:09.098Z,101281.37
2017-04-10T01:22:07.561Z,101284.98
2017-04-10T01:23:06.039Z,101282.67
2017-04-10T01:24:04.571Z,101276.61
2017-04-10T01:25:03.079Z,101283.85
2017-04-10T01:26:01.675Z,101281.91
2017-04-10T01:27:00.271Z,101273.03
2017-04-10T01:27:58.851Z,101279.74
2017-04-10T01:28:57.405Z,101279.65
2017-04-10T01:29:55.931Z,101270.13
2017-04-10T01:30:54.454Z,101270.97
2017-04-10T01:31:52.983Z,101273.42
2017-04-10T01:32:51.534Z,101271.86
2017-04-10T01:33:50.020Z,101269.70
2017-04-10T01:34:48.563Z,101266.47
2017-04-10T01:35:47.156Z,101264.73
2017-04-10T01:36:45.664Z,101265.13
2017-04-10T01:37:44.191Z,101268.77
2017-04-10T01:38:42.719Z,101265.42
2017-04-10T01:39:41.320Z,101261.25
2017-04-10T01:40:39.859Z,101259.64
2017-04-10T01:41:38.394Z,101262.31
2017-04-10T01:42:36.913Z,101260.97
2017-04-10T01:43:35.421Z,101262.45
2017-04-10T01:44:34.027Z,101251.55
2017-04-10T01:45:32.659Z,101260.45
2017-04-10T01:46:31.275Z,101253.55
2017-04-10T01:47:29.942Z,101256.67
2017-04-10T01:48:28.555Z,101253.03
2017-04-10T01:49:27.142Z,101258.41
2017-04-10T01:50:25.687Z,101253.43
2017-04-10T01:51:24.186Z,101255.30
2017-04-10T01:52:22.746Z,101249.39
2017-04-10T01:53:21.250Z,101246.83
2017-04-10T01:54:19.752Z,101249.91
2017-04-10T01:55:18.293Z,101249.27
2017-04-10T01:56:16.803Z,101247.24
2017-04-10T01:57:15.394Z,101243.60
2017-04-10T01:58:13.882Z,101244.13
2017-04-10T01:59:12.403Z,101241.84
2017-04-10T02:00:10.919Z,101232.44
2017-04-10T02:01:09.479Z,101238.23
2017-04-10T02:02:07.994Z,101236.06
2017-04-10T02:03:06.474Z,101233.11
2017-04-10T02:04:04.966Z,101229.48
2017-04-10T02:05:03.546Z,101238.61
2017-04-10T02:06:02.204Z,101224.61
2017-04-10T02:07:00.732Z,101224.34
2017-04-10T02:07:59.291Z,101229.22
2017-04-10T02:08:57.795Z,101226.64
2017-04-10T02:09:56.279Z,101232.97
2017-04-10T02:10:54.890Z,101222.88
2017-04-10T02:11:53.388Z,101225.82
2017-04-10T02:12:51.881Z,101224.61
2017-04-10T02:13:50.428Z,101224.48
2017-04-10T02:14:49.045Z,101221.25
2017-04-10T02:15:47.559Z,101214.27
2017-04-10T02:16:46.098Z,101217.05
2017-04-10T02:17:44.665Z,101214.64
2017-04-10T02:18:43.165Z,101211.55
2017-04-10T02:19:41.659Z,101213.58
2017-04-10T02:20:40.158Z,101213.59
2017-04-10T02:21:38.647Z,101211.30
2017-04-10T02:22:37.151Z,101210.75
2017-04-10T02:23:35.728Z,101211.03
2017-04-10T02:24:34.208Z,101212.48
2017-04-10T02:25:32.707Z,101215.08
2017-04-10T02:26:31.215Z,101212.50
2017-04-10T02:27:29.731Z,101210.88
2017-04-10T02:28:28.239Z,101214.80
2017-04-10T02:29:26.804Z,101207.77
2017-04-10T02:30:25.709Z,101212.77
2017-04-10T02:31:24.262Z,101207.66
2017-04-10T02:32:23.287Z,101210.20
2017-04-10T02:33:21.763Z,101207.92
2017-04-10T02:34:20.251Z,101207.27
2017-04-10T02:35:18.769Z,101208.88
2017-04-10T02:36:17.363Z,101206.30
2017-04-10T02:37:15.984Z,101205.89
2017-04-10T02:38:14.475Z,101205.51
2017-04-10T02:39:12.982Z,101206.70
2017-04-10T02:40:11.495Z,101204.41
2017-04-10T02:41:10.032Z,101205.89
2017-04-10T02:42:08.590Z,101201.85
2017-04-10T02:43:07.227Z,101202.41
2017-04-10T02:44:05.715Z,101204.44
2017-04-10T02:45:04.244Z,101203.47
2017-04-10T02:46:02.803Z,101204.55
2017-04-10T02:47:01.347Z,101207.92
2017-04-10T02:48:00.013Z,101197.83
2017-04-10T02:48:58.515Z,101205.36
2017-04-10T02:49:57.054Z,101201.97
2017-04-10T02:50:55.557Z,101198.19
2017-04-10T02:51:54.279Z,101203.17
2017-04-10T02:52:52.826Z,101196.02
2017-04-10T02:53:51.319Z,101193.63
2017-04-10T02:54:49.828Z,101194.69
2017-04-10T02:55:48.292Z,101197.52
2017-04-10T02:56:46.883Z,101194.30
2017-04-10T02:57:45.367Z,101194.45
2017-04-10T02:58:43.852Z,101191.64
2017-04-10T02:59:42.458Z,101186.12
2017-04-10T03:00:40.957Z,101191.64
2017-04-10T03:01:39.538Z,101189.08
2017-04-10T03:02:38.019Z,101183.83
2017-04-10T03:03:36.480Z,101187.05
2017-04-10T03:04:35.095Z,101189.08
2017-04-10T03:05:33.671Z,101186.25
2017-04-10T03:06:32.154Z,101190.28
2017-04-10T03:07:30.823Z,101188.52
2017-04-10T03:08:29.323Z,101181.37
2017-04-10T03:09:27.848Z,101186.08
2017-04-10T03:10:26.403Z,101189.85
2017-04-10T03:11:24.933Z,101190.23
2017-04-10T03:12:23.451Z,101191.95
2017-04-10T03:13:21.959Z,101190.90
2017-04-10T03:14:20.570Z,101189.55
2017-04-10T03:15:19.187Z,101192.22
2017-04-10T03:16:17.828Z,101185.25
2017-04-10T03:17:16.478Z,101190.08
2017-04-10T03:18:15.119Z,101188.08
2017-04-10T03:19:13.774Z,101189.02
2017-04-10T03:20:12.390Z,101195.62
2017-04-10T03:21:10.943Z,101186.84
2017-04-10T03:22:09.495Z,101182.53
2017-04-10T03:23:07.987Z,101180.77
2017-04-10T03:24:06.507Z,101178.78
2017-04-10T03:25:05.088Z,101178.23
2017-04-10T03:26:03.591Z,101177.84
2017-04-10T03:27:02.078Z,101172.22
2017-04-10T03:28:00.662Z,101180.30
2017-04-10T03:28:59.265Z,101189.27
2017-04-10T03:29:57.868Z,101189.28
2017-04-10T03:30:56.491Z,101192.48
2017-04-10T03:31:54.971Z,101190.75
2017-04-10T03:32:53.579Z,101197.05
2017-04-10T03:33:52.115Z,101193.48
2017-04-10T03:34:50.619Z,101199.21
2017-04-10T03:35:49.187Z,101203.34
2017-04-10T03:36:47.670Z,101206.69
2017-04-10T03:37:46.192Z,101204.27
2017-04-10T03:38:44.712Z,101206.84
2017-04-10T03:39:43.343Z,101204.31
2017-04-10T03:40:41.822Z,101199.52
2017-04-10T03:41:40.323Z,101200.23
2017-04-10T03:42:38.819Z,101201.67
2017-04-10T03:43:37.351Z,101203.55
2017-04-10T03:44:35.899Z,101198.00
2017-04-10T03:45:34.390Z,101198.31
2017-04-10T03:46:32.895Z,101198.95
2017-04-10T03:47:31.815Z,101200.34
2017-04-10T03:48:30.335Z,101197.14
2017-04-10T03:49:28.858Z,101200.14
2017-04-10T03:50:27.511Z,101199.01
2017-04-10T03:51:26.086Z,101198.06
2017-04-10T03:52:24.572Z,101204.60
2017-04-10T03:53:23.091Z,101207.63
2017-04-10T03:54:21.689Z,101209.55
2017-04-10T03:55:20.162Z,101208.76
2017-04-10T03:56:19.388Z,101206.46
2017-04-10T03:57:18.303Z,101199.41
2017-04-10T03:58:16.827Z,101205.00
2017-04-10T03:59:15.311Z,101207.49
2017-04-10T04:00:13.854Z,101207.95
2017-04-10T04:01:12.399Z,101204.70
2017-04-10T04:02:10.863Z,101200.83
2017-04-10T04:03:09.374Z,101193.69
2017-04-10T04:04:07.916Z,101197.46
2017-04-10T04:05:06.436Z,101194.41
2017-04-10T04:06:05.083Z,101192.66
2017-04-10T04:07:03.594Z,101188.58
2017-04-10T04:08:02.115Z,101190.00
2017-04-10T04:09:00.726Z,101187.16
2017-04-10T04:09:59.214Z,101192.13
2017-04-10T04:10:57.721Z,101192.38
2017-04-10T04:11:56.202Z,101192.51
2017-04-10T04:12:54.747Z,101193.57
2017-04-10T04:13:53.244Z,101198.19
2017-04-10T04:14:51.763Z,101197.75
2017-04-10T04:15:50.263Z,101203.47
2017-04-10T04:16:52.507Z,101202.30
2017-04-10T04:17:51.012Z,101198.34
2017-04-10T04:18:49.507Z,101197.88
2017-04-10T04:19:47.996Z,101188.97
2017-04-10T04:20:46.502Z,101201.95
2017-04-10T04:21:45.083Z,101199.00
2017-04-10T04:22:43.731Z,101198.72
2017-04-10T04:23:42.224Z,101193.95
2017-04-10T04:24:40.751Z,101189.39
2017-04-10T04:25:39.266Z,101198.89
2017-04-10T04:26:37.823Z,101200.36
2017-04-10T04:27:36.307Z,101205.98
2017-04-10T04:28:34.796Z,101203.66
2017-04-10T04:29:33.284Z,101203.69
2017-04-10T04:30:31.775Z,101206.91
2017-04-10T04:31:30.371Z,101209.19
2017-04-10T04:32:28.874Z,101210.01
2017-04-10T04:33:27.383Z,101210.58
2017-04-10T04:34:25.875Z,101208.61
2017-04-10T04:35:24.380Z,101214.28
2017-04-10T04:36:22.859Z,101215.34
2017-04-10T04:37:21.379Z,101217.06
2017-04-10T04:38:19.911Z,101214.67
2017-04-10T04:39:18.770Z,101218.92
2017-04-10T04:40:17.367Z,101219.89
2017-04-10T04:41:15.847Z,101219.31
2017-04-10T04:42:14.323Z,101224.22
2017-04-10T04:43:12.911Z,101221.41
2017-04-10T04:44:11.416Z,101222.27
2017-04-10T04:45:09.898Z,101226.80
2017-04-10T04:46:08.401Z,101223.98
2017-04-10T04:47:07.005Z,101231.38
2017-04-10T04:48:05.618Z,101224.44
2017-04-10T04:49:04.307Z,101228.69
2017-04-10T04:50:02.867Z,101223.99
2017-04-10T04:51:01.382Z,101222.70
2017-04-10T04:51:59.895Z,101225.56
2017-04-10T04:52:58.426Z,101228.62
2017-04-10T04:53:56.923Z,101224.27
2017-04-10T04:54:55.456Z,101225.95
2017-04-10T04:55:53.955Z,101223.58
2017-04-10T04:56:52.427Z,101228.04
2017-04-10T04:57:51.075Z,101226.23
2017-04-10T04:58:49.740Z,101231.25
2017-04-10T04:59:48.391Z,101237.88
2017-04-10T05:00:47.031Z,101238.03
2017-04-10T05:01:45.623Z,101237.77
2017-04-10T05:02:44.231Z,101239.52
2017-04-10T05:03:42.722Z,101242.47
2017-04-10T05:04:41.235Z,101239.47
2017-04-10T05:05:39.759Z,101249.66
2017-04-10T05:06:38.223Z,101255.76
2017-04-10T05:07:36.754Z,101260.52
2017-04-10T05:08:35.259Z,101258.21
2017-04-10T05:09:33.814Z,101259.78
2017-04-10T05:10:32.451Z,101260.06
2017-04-10T05:11:31.091Z,101260.16
2017-04-10T05:12:29.658Z,101262.56
2017-04-10T05:13:28.136Z,101263.11
2017-04-10T05:14:26.666Z,101266.55
2017-04-10T05:15:25.195Z,101264.98
2017-04-10T05:16:23.687Z,101264.09
2017-04-10T05:17:22.187Z,101262.81
2017-04-10T05:18:20.708Z,101259.24
2017-04-10T05:19:19.319Z,101270.83
2017-04-10T05:20:17.839Z,101275.17
2017-04-10T05:21:16.347Z,101276.94
2017-04-10T05:22:15.828Z,101277.34
2017-04-10T05:23:14.377Z,101283.80
2017-04-10T05:24:12.919Z,101282.05
2017-04-10T05:25:11.427Z,101278.86
2017-04-10T05:26:10.191Z,101281.95
2017-04-10T05:27:08.686Z,101270.30
2017-04-10T05:28:07.175Z,101281.27
2017-04-10T05:29:05.703Z,101274.53
2017-04-10T05:30:04.254Z,101279.98
2017-04-10T05:31:02.753Z,101270.23
2017-04-10T05:32:01.239Z,101269.28
2017-04-10T05:32:59.784Z,101273.33
2017-04-10T05:33:58.287Z,101276.75
2017-04-10T05:34:56.827Z,101281.08
2017-04-10T05:35:55.364Z,101279.95
2017-04-10T05:36:53.957Z,101285.61
2017-04-10T05:37:52.595Z,101282.30
2017-04-10T05:38:51.155Z,101286.48
2017-04-10T05:39:49.627Z,101284.73
2017-04-10T05:40:48.111Z,101295.36
2017-04-10T05:41:46.647Z,101296.46
2017-04-10T05:42:45.143Z,101296.40
2017-04-10T05:43:43.631Z,101297.47
2017-04-10T05:44:42.130Z,101296.19
2017-04-10T05:45:40.775Z,101296.06
2017-04-10T05:46:39.401Z,101299.86
2017-04-10T05:47:37.891Z,101293.95
2017-04-10T05:48:36.479Z,101301.37
2017-04-10T05:49:34.995Z,101305.16
2017-04-10T05:50:33.479Z,101305.56
2017-04-10T05:51:31.995Z,101311.08
2017-04-10T05:52:30.495Z,101304.34
2017-04-10T05:53:29.018Z,101309.99
2017-04-10T05:54:27.603Z,101312.95
2017-04-10T05:55:26.235Z,101308.95
2017-04-10T05:56:24.883Z,101315.96
2017-04-10T05:57:23.362Z,101311.48
2017-04-10T05:58:21.980Z,101317.58
2017-04-10T05:59:20.511Z,101323.39
2017-04-10T06:00:19.043Z,101317.88
2017-04-10T06:01:17.615Z,101320.02
2017-04-10T06:02:16.172Z,101324.76
2017-04-10T06:03:14.686Z,101321.16
2017-04-10T06:04:13.196Z,101327.76
2017-04-10T06:05:12.011Z,101333.37
2017-04-10T06:06:10.507Z,101323.53
2017-04-10T06:07:09.023Z,101324.87
2017-04-10T06:08:07.537Z,101333.78
2017-04-10T06:09:06.547Z,101329.41
2017-04-10T06:10:05.067Z,101329.44
2017-04-10T06:11:03.563Z,101329.91
2017-04-10T06:12:02.093Z,101341.19
2017-04-10T06:13:00.692Z,101336.30
2017-04-10T06:13:59.298Z,101340.53
2017-04-10T06:14:58.526Z,101337.03
2017-04-10T06:15:57.073Z,101337.84
2017-04-10T06:16:55.616Z,101346.74
2017-04-10T06:17:54.194Z,101344.31
2017-04-10T06:18:52.791Z,101343.74
2017-04-10T06:19:51.434Z,101351.44
2017-04-10T06:20:50.028Z,101351.02
2017-04-10T06:21:48.559Z,101348.16
2017-04-10T06:22:47.090Z,101356.28
2017-04-10T06:23:45.621Z,101359.37
2017-04-10T06:24:44.191Z,101351.80
2017-04-10T06:25:42.720Z,101358.14
2017-04-10T06:26:41.229Z,101358.07
2017-04-10T06:27:39.725Z,101360.27
2017-04-10T06:28:38.395Z,101362.05
2017-04-10T06:29:36.907Z,101362.75
2017-04-10T06:30:35.568Z,101363.64
2017-04-10T06:31:34.127Z,101367.17
2017-04-10T06:32:33.850Z,101364.79
2017-04-10T06:33:32.386Z,101369.50
2017-04-10T06:34:31.062Z,101366.24
2017-04-10T06:35:29.562Z,101375.70
2017-04-10T06:36:28.171Z,101371.94
2017-04-10T06:37:26.720Z,101371.67
2017-04-10T06:38:25.215Z,101373.38
2017-04-10T06:39:23.715Z,101367.05
2017-04-10T06:40:22.206Z,101371.61
2017-04-10T06:41:20.707Z,101367.70
2017-04-10T06:42:19.235Z,101376.73
2017-04-10T06:43:17.760Z,101373.66
2017-04-10T06:44:16.267Z,101382.41
2017-04-10T06:45:14.884Z,101388.59
2017-04-10T06:46:13.406Z,101386.34
2017-04-10T06:47:11.991Z,101387.14
2017-04-10T06:48:10.496Z,101386.27
2017-04-10T06:49:08.991Z,101396.42
2017-04-10T06:50:07.471Z,101393.23
2017-04-10T06:51:05.979Z,101393.73
2017-04-10T06:52:04.520Z,101392.83
2017-04-10T06:53:03.012Z,101396.72
2017-04-10T06:54:01.562Z,101396.19
2017-04-10T06:55:00.119Z,101392.68
2017-04-10T06:55:58.659Z,101396.92
2017-04-10T06:56:57.178Z,101407.80
2017-04-10T06:57:55.696Z,101397.95
2017-04-10T06:58:54.267Z,101406.86
2017-04-10T06:59:52.767Z,101404.42
2017-04-10T07:00:51.355Z,101410.66
2017-04-10T07:01:49.979Z,101413.07
2017-04-10T07:03:19.200Z,101406.25
2017-04-10T07:04:17.827Z,101413.50
2017-04-10T07:05:16.347Z,101404.92
2017-04-10T07:06:15.003Z,101408.82
2017-04-10T07:07:13.495Z,101414.52
2017-04-10T07:08:11.995Z,101414.42
2017-04-10T07:09:10.527Z,101423.75
2017-04-10T07:10:09.059Z,101424.28
2017-04-10T07:11:07.594Z,101428.70
2017-04-10T07:12:06.107Z,101431.83
2017-04-10T07:13:04.618Z,101432.35
2017-04-10T07:14:03.143Z,101429.30
2017-04-10T07:15:02.001Z,101433.59
2017-04-10T07:16:00.599Z,101436.71
2017-04-10T07:16:59.179Z,101439.27
2017-04-10T07:17:57.707Z,101444.74
2017-04-10T07:18:56.226Z,101450.13
2017-04-10T07:19:54.739Z,101449.95
2017-04-10T07:20:53.236Z,101448.22
2017-04-10T07:21:51.759Z,101443.25
2017-04-10T07:22:50.279Z,101448.61
2017-04-10T07:23:48.812Z,101459.16
2017-04-10T07:24:47.367Z,101456.70
2017-04-10T07:25:45.860Z,101458.80
2017-04-10T07:26:44.504Z,101454.39
2017-04-10T07:27:43.010Z,101454.66
2017-04-10T07:28:41.508Z,101461.03
2017-04-10T07:29:40.011Z,101455.72
2017-04-10T07:30:38.527Z,101464.88
2017-04-10T07:31:37.034Z,101468.28
2017-04-10T07:32:35.575Z,101472.84
2017-04-10T07:33:34.091Z,101474.91
2017-04-10T07:34:32.607Z,101468.15
2017-04-10T07:35:31.148Z,101476.78
2017-04-10T07:36:29.667Z,101462.38
2017-04-10T07:37:28.210Z,101468.60
2017-04-10T07:38:26.724Z,101474.05
2017-04-10T07:39:25.247Z,101473.09
2017-04-10T07:40:23.771Z,101479.97
2017-04-10T07:41:22.263Z,101479.86
2017-04-10T07:42:20.759Z,101478.70
2017-04-10T07:43:19.316Z,101481.27
2017-04-10T07:44:17.832Z,101483.42
2017-04-10T07:45:16.466Z,101487.42
2017-04-10T07:46:14.987Z,101493.81
2017-04-10T07:47:13.514Z,101494.72
2017-04-10T07:48:12.028Z,101493.48
2017-04-10T07:49:10.530Z,101492.93
2017-04-10T07:50:09.054Z,101496.12
2017-04-10T07:51:07.568Z,101497.14
2017-04-10T07:52:06.135Z,101501.02
2017-04-10T07:53:04.702Z,101506.20
2017-04-10T07:54:03.310Z,101506.27
2017-04-10T07:55:01.832Z,101512.31
2017-04-10T07:56:00.314Z,101503.14
2017-04-10T07:56:58.844Z,101515.09
2017-04-10T07:57:57.438Z,101510.47
2017-04-10T07:58:55.974Z,101507.59
2017-04-10T07:59:54.491Z,101503.67
2017-04-10T08:00:53.013Z,101504.19
2017-04-10T08:01:51.563Z,101504.44
2017-04-10T08:02:50.058Z,101507.24
2017-04-10T08:03:48.571Z,101510.39
2017-04-10T08:04:47.100Z,101507.95
2017-04-10T08:05:45.675Z,101508.20
2017-04-10T08:06:44.230Z,101508.88
2017-04-10T08:07:43.000Z,101507.89
2017-04-10T08:08:41.555Z,101505.33
2017-04-10T08:09:40.124Z,101507.71
2017-04-10T08:10:38.695Z,101511.55
2017-04-10T08:11:37.252Z,101505.26
2017-04-10T08:12:35.794Z,101508.80
2017-04-10T08:13:34.311Z,101504.09
2017-04-10T08:14:32.840Z,101506.66
2017-04-10T08:15:31.335Z,101513.25
2017-04-10T08:16:29.839Z,101513.73
2017-04-10T08:17:28.399Z,101517.28
2017-04-10T08:18:26.900Z,101511.66
2017-04-10T08:19:25.494Z,101513.94
2017-04-10T08:20:24.020Z,101513.06
2017-04-10T08:21:22.528Z,101514.16
2017-04-10T08:22:21.058Z,101514.59
2017-04-10T08:23:19.580Z,101516.06
2017-04-10T08:24:18.071Z,101512.83
2017-04-10T08:25:16.571Z,101526.66
2017-04-10T08:26:15.083Z,101525.63
2017-04-10T08:27:13.633Z,101532.59
2017-04-10T08:28:12.180Z,101534.45
2017-04-10T08:29:10.707Z,101534.48
2017-04-10T08:30:09.403Z,101526.84
2017-04-10T08:31:07.904Z,101536.08
2017-04-10T08:32:06.451Z,101532.19
2017-04-10T08:33:04.980Z,101530.25
2017-04-10T08:34:03.520Z,101538.97
2017-04-10T08:35:02.052Z,101536.30
2017-04-10T08:36:00.605Z,101536.47
2017-04-10T08:36:59.330Z,101543.03
2017-04-10T08:37:57.978Z,101542.12
2017-04-10T08:38:56.599Z,101540.05
2017-04-10T08:39:55.228Z,101540.01
2017-04-10T08:40:53.899Z,101539.72
2017-04-10T08:41:52.501Z,101547.69
2017-04-10T08:42:51.075Z,101549.02
2017-04-10T08:43:49.587Z,101551.34
2017-04-10T08:44:48.094Z,101550.02
2017-04-10T08:45:46.627Z,101539.36
2017-04-10T08:46:45.142Z,101543.81
2017-04-10T08:47:43.632Z,101550.09
2017-04-10T08:48:42.699Z,101542.96
2017-04-10T08:49:41.252Z,101550.30
2017-04-10T08:50:39.752Z,101547.77
2017-04-10T08:51:39.348Z,101540.80
2017-04-10T08:52:37.900Z,101551.00
2017-04-10T08:53:36.407Z,101554.94
2017-04-10T08:54:35.034Z,101557.92
2017-04-10T08:55:33.650Z,101559.52
2017-04-10T08:56:32.174Z,101557.30
2017-04-10T08:57:30.695Z,101558.91
2017-04-10T08:58:29.296Z,101565.17
2017-04-10T08:59:27.873Z,101562.68
2017-04-10T09:00:26.743Z,101565.52
2017-04-10T09:01:25.239Z,101566.28
2017-04-10T09:02:23.750Z,101569.31
2017-04-10T09:03:22.355Z,101569.70
2017-04-10T09:04:20.927Z,101577.27
2017-04-10T09:05:19.444Z,101585.92
2017-04-10T09:06:18.108Z,101578.49
2017-04-10T09:07:16.639Z,101582.00
2017-04-10T09:08:15.147Z,101591.88
2017-04-10T09:09:13.719Z,101584.72
2017-04-10T09:10:12.267Z,101586.06
2017-04-10T09:11:10.859Z,101589.95
2017-04-10T09:12:09.389Z,101590.11
2017-04-10T09:13:07.971Z,101589.41
2017-04-10T09:14:06.537Z,101591.77
2017-04-10T09:15:05.142Z,101590.08
2017-04-10T09:16:03.690Z,101593.28
2017-04-10T09:17:02.199Z,101585.41
2017-04-10T09:18:00.721Z,101592.91
2017-04-10T09:18:59.252Z,101590.72
2017-04-10T09:19:57.839Z,101595.28
2017-04-10T09:20:56.351Z,101593.00
2017-04-10T09:21:54.875Z,101590.30
2017-04-10T09:22:53.453Z,101594.39
2017-04-10T09:23:51.995Z,101589.90
2017-04-10T09:24:50.542Z,101585.97
2017-04-10T09:25:49.083Z,101590.72
2017-04-10T09:26:47.584Z,101591.39
2017-04-10T09:27:46.104Z,101591.39
2017-04-10T09:28:44.588Z,101592.91
2017-04-10T09:29:43.103Z,101591.52
2017-04-10T09:30:41.623Z,101598.05
2017-04-10T09:31:40.180Z,101597.54
2017-04-10T09:32:38.687Z,101592.55
2017-04-10T09:33:37.175Z,101595.67
2017-04-10T09:34:35.716Z,101597.05
2017-04-10T09:35:34.221Z,101594.22
2017-04-10T09:36:32.846Z,101594.93
2017-04-10T09:37:31.411Z,101592.84
2017-04-10T09:38:30.107Z,101591.56
2017-04-10T09:39:28.725Z,101586.19
2017-04-10T09:40:27.800Z,101591.96
2017-04-10T09:41:26.311Z,101590.57
2017-04-10T09:42:24.791Z,101598.52
2017-04-10T09:43:24.294Z,101599.23
2017-04-10T09:44:22.868Z,101600.80
2017-04-10T09:45:21.509Z,101602.39
2017-04-10T09:46:20.119Z,101601.98
2017-04-10T09:47:18.721Z,101600.77
2017-04-10T09:48:17.249Z,101599.43
2017-04-10T09:49:15.751Z,101599.30
2017-04-10T09:50:14.311Z,101592.56
2017-04-10T09:51:12.940Z,101598.52
2017-04-10T09:52:11.509Z,101601.62
2017-04-10T09:53:10.071Z,101594.01
2017-04-10T09:54:08.543Z,101592.52
2017-04-10T09:55:07.043Z,101595.20
2017-04-10T09:56:05.594Z,101594.69
2017-04-10T09:57:04.115Z,101594.04
2017-04-10T09:58:02.720Z,101591.75
2017-04-10T09:59:01.243Z,101590.66
2017-04-10T09:59:59.794Z,101590.54
2017-04-10T10:00:58.317Z,101593.47
2017-04-10T10:01:56.994Z,101592.13
2017-04-10T10:02:55.483Z,101589.18
2017-04-10T10:03:53.959Z,101587.44
2017-04-10T10:04:52.495Z,101599.97
2017-04-10T10:05:51.075Z,101598.08
2017-04-10T10:06:49.714Z,101594.44
2017-04-10T10:07:48.289Z,101599.02
2017-04-10T10:08:46.881Z,101600.05
2017-04-10T10:09:45.513Z,101592.72
2017-04-10T10:10:44.119Z,101592.81
2017-04-10T10:11:42.622Z,101592.01
2017-04-10T10:12:41.150Z,101597.68
2017-04-10T10:13:39.788Z,101598.23
2017-04-10T10:14:38.339Z,101603.08
2017-04-10T10:15:36.860Z,101603.45
2017-04-10T10:16:35.371Z,101602.96
2017-04-10T10:17:33.930Z,101604.84
2017-04-10T10:18:32.503Z,101600.05
2017-04-10T10:19:31.052Z,101605.34
2017-04-10T10:20:29.638Z,101606.02
2017-04-10T10:21:28.139Z,101609.94
2017-04-10T10:22:26.747Z,101607.66
2017-04-10T10:23:25.300Z,101608.17
2017-04-10T10:24:23.832Z,101606.30
2017-04-10T10:25:22.407Z,101610.63
2017-04-10T10:26:20.891Z,101610.75
2017-04-10T10:27:19.433Z,101611.55
2017-04-10T10:28:17.941Z,101616.66
2017-04-10T10:29:16.454Z,101609.69
2017-04-10T10:30:15.013Z,101612.25
2017-04-10T10:31:13.520Z,101613.31
2017-04-10T10:32:12.052Z,101611.95
2017-04-10T10:33:10.579Z,101609.69
2017-04-10T10:34:09.110Z,101612.52
2017-04-10T10:35:07.582Z,101605.22
2017-04-10T10:36:06.111Z,101604.12
2017-04-10T10:37:04.663Z,101605.48
2017-04-10T10:38:03.191Z,101615.97
2017-04-10T10:39:01.675Z,101615.77
2017-04-10T10:40:00.187Z,101617.52
2017-04-10T10:40:58.723Z,101622.78
2017-04-10T10:41:57.280Z,101610.98
2017-04-10T10:42:55.803Z,101616.42
2017-04-10T10:43:54.311Z,101605.06
2017-04-10T10:44:52.869Z,101607.91
2017-04-10T10:45:51.390Z,101610.50
2017-04-10T10:46:49.891Z,101616.84
2017-04-10T10:47:48.523Z,101614.13
2017-04-10T10:48:47.059Z,101620.41
2017-04-10T10:49:45.690Z,101613.75
2017-04-10T10:50:44.323Z,101613.90
2017-04-10T10:51:42.863Z,101616.80
2017-04-10T10:52:41.353Z,101613.88
2017-04-10T10:53:39.862Z,101621.34
2017-04-10T10:54:38.527Z,101614.35
2017-04-10T10:55:37.251Z,101614.91
2017-04-10T10:56:35.819Z,101604.54
2017-04-10T10:57:34.390Z,101608.69
2017-04-10T10:58:32.895Z,101611.12
2017-04-10T10:59:31.524Z,101615.20
2017-04-10T11:00:30.098Z,101610.19
2017-04-10T11:01:28.631Z,101608.70
2017-04-10T11:02:27.486Z,101607.52
2017-04-10T11:03:25.996Z,101607.64
2017-04-10T11:04:24.520Z,101612.45
2017-04-10T11:05:23.059Z,101615.03
2017-04-10T11:06:21.605Z,101612.93
2017-04-10T11:07:20.186Z,101615.19
2017-04-10T11:08:18.687Z,101618.43